sensor_id;sensor_type;location;lat;lon;timestamp;P1;durP1;ratioP1;P2;durP2;ratioP2
3819;SDS011;1925;51.356;9.530;2023-07-13T00:00:17;3.30;;;1.23;;
3819;SDS011;1925;51.356;9.530;2023-07-13T00:02:43;2.23;;;1.40;;
3819;SDS011;1925;51.356;9.530;2023-07-13T00:05:09;2.17;;;1.97;;
3819;SDS011;1925;51.356;9.530;2023-07-13T00:07:35;2.03;;;1.83;;
3819;SDS011;1925;51.356;9.530;2023-07-13T00:10:02;1.90;;;1.40;;
3819;SDS011;1925;51.356;9.530;2023-07-13T00:12:29;3.50;;;1.47;;
3819;SDS011;1925;51.356;9.530;2023-07-13T00:14:57;2.90;;;1.60;;
3819;SDS011;1925;51.356;9.530;2023-07-13T00:17:23;3.87;;;1.60;;
3819;SDS011;1925;51.356;9.530;2023-07-13T00:19:49;4.63;;;1.60;;
3819;SDS011;1925;51.356;9.530;2023-07-13T00:22:16;2.57;;;1.67;;
3819;SDS011;1925;51.356;9.530;2023-07-13T00:24:43;7.30;;;2.07;;
3819;SDS011;1925;51.356;9.530;2023-07-13T00:27:09;2.23;;;1.20;;
3819;SDS011;1925;51.356;9.530;2023-07-13T00:29:35;4.77;;;1.70;;
3819;SDS011;1925;51.356;9.530;2023-07-13T00:32:02;4.63;;;1.57;;
3819;SDS011;1925;51.356;9.530;2023-07-13T00:34:28;2.40;;;1.10;;
3819;SDS011;1925;51.356;9.530;2023-07-13T00:36:55;6.90;;;1.77;;
3819;SDS011;1925;51.356;9.530;2023-07-13T00:39:21;3.93;;;2.23;;
3819;SDS011;1925;51.356;9.530;2023-07-13T00:41:47;5.33;;;4.13;;
3819;SDS011;1925;51.356;9.530;2023-07-13T00:44:14;5.37;;;3.00;;
3819;SDS011;1925;51.356;9.530;2023-07-13T00:46:40;4.80;;;3.07;;
3819;SDS011;1925;51.356;9.530;2023-07-13T00:49:08;4.83;;;2.30;;
3819;SDS011;1925;51.356;9.530;2023-07-13T00:51:39;1.83;;;1.73;;
3819;SDS011;1925;51.356;9.530;2023-07-13T00:54:07;2.77;;;1.70;;
3819;SDS011;1925;51.356;9.530;2023-07-13T00:56:35;3.63;;;1.70;;
3819;SDS011;1925;51.356;9.530;2023-07-13T00:59:02;3.70;;;1.90;;
3819;SDS011;1925;51.356;9.530;2023-07-13T01:01:28;5.37;;;2.27;;
3819;SDS011;1925;51.356;9.530;2023-07-13T01:03:54;4.07;;;2.00;;
3819;SDS011;1925;51.356;9.530;2023-07-13T01:06:22;3.43;;;1.50;;
3819;SDS011;1925;51.356;9.530;2023-07-13T01:08:47;5.83;;;1.77;;
3819;SDS011;1925;51.356;9.530;2023-07-13T01:11:18;4.40;;;1.60;;
3819;SDS011;1925;51.356;9.530;2023-07-13T01:13:44;4.70;;;1.77;;
3819;SDS011;1925;51.356;9.530;2023-07-13T01:16:15;2.53;;;1.53;;
3819;SDS011;1925;51.356;9.530;2023-07-13T01:18:41;2.53;;;1.90;;
3819;SDS011;1925;51.356;9.530;2023-07-13T01:21:07;2.90;;;1.73;;
3819;SDS011;1925;51.356;9.530;2023-07-13T01:23:33;2.50;;;1.97;;
3819;SDS011;1925;51.356;9.530;2023-07-13T01:25:59;1.57;;;1.30;;
3819;SDS011;1925;51.356;9.530;2023-07-13T01:28:26;3.40;;;2.43;;
3819;SDS011;1925;51.356;9.530;2023-07-13T01:30:53;1.83;;;1.67;;
3819;SDS011;1925;51.356;9.530;2023-07-13T01:33:20;1.87;;;1.43;;
3819;SDS011;1925;51.356;9.530;2023-07-13T01:35:46;2.57;;;1.70;;
3819;SDS011;1925;51.356;9.530;2023-07-13T01:38:15;2.90;;;1.83;;
3819;SDS011;1925;51.356;9.530;2023-07-13T01:40:42;3.93;;;1.50;;
3819;SDS011;1925;51.356;9.530;2023-07-13T01:43:08;3.03;;;1.87;;
3819;SDS011;1925;51.356;9.530;2023-07-13T01:45:34;3.73;;;1.60;;
3819;SDS011;1925;51.356;9.530;2023-07-13T01:48:00;2.80;;;1.70;;
3819;SDS011;1925;51.356;9.530;2023-07-13T01:50:26;3.30;;;1.70;;
3819;SDS011;1925;51.356;9.530;2023-07-13T01:52:52;5.10;;;1.77;;
3819;SDS011;1925;51.356;9.530;2023-07-13T01:55:19;7.60;;;1.70;;
3819;SDS011;1925;51.356;9.530;2023-07-13T01:57:45;3.37;;;1.80;;
3819;SDS011;1925;51.356;9.530;2023-07-13T02:00:13;4.00;;;1.70;;
3819;SDS011;1925;51.356;9.530;2023-07-13T02:02:39;1.53;;;1.20;;
3819;SDS011;1925;51.356;9.530;2023-07-13T02:05:05;3.43;;;1.50;;
3819;SDS011;1925;51.356;9.530;2023-07-13T02:07:31;5.47;;;1.90;;
3819;SDS011;1925;51.356;9.530;2023-07-13T02:09:57;2.33;;;2.10;;
3819;SDS011;1925;51.356;9.530;2023-07-13T02:12:23;4.73;;;1.90;;
3819;SDS011;1925;51.356;9.530;2023-07-13T02:14:49;3.13;;;1.60;;
3819;SDS011;1925;51.356;9.530;2023-07-13T02:17:15;3.73;;;1.70;;
3819;SDS011;1925;51.356;9.530;2023-07-13T02:19:41;5.30;;;1.90;;
3819;SDS011;1925;51.356;9.530;2023-07-13T02:22:07;4.33;;;1.63;;
3819;SDS011;1925;51.356;9.530;2023-07-13T02:24:33;1.90;;;1.50;;
3819;SDS011;1925;51.356;9.530;2023-07-13T02:26:59;2.93;;;1.53;;
3819;SDS011;1925;51.356;9.530;2023-07-13T02:29:25;3.23;;;1.73;;
3819;SDS011;1925;51.356;9.530;2023-07-13T02:31:51;5.23;;;2.00;;
3819;SDS011;1925;51.356;9.530;2023-07-13T02:34:17;5.77;;;2.00;;
3819;SDS011;1925;51.356;9.530;2023-07-13T02:36:43;2.50;;;1.57;;
3819;SDS011;1925;51.356;9.530;2023-07-13T02:39:09;2.10;;;1.70;;
3819;SDS011;1925;51.356;9.530;2023-07-13T02:41:37;4.23;;;1.93;;
3819;SDS011;1925;51.356;9.530;2023-07-13T02:44:03;3.07;;;2.03;;
3819;SDS011;1925;51.356;9.530;2023-07-13T02:46:29;2.40;;;1.57;;
3819;SDS011;1925;51.356;9.530;2023-07-13T02:48:55;5.47;;;1.43;;
3819;SDS011;1925;51.356;9.530;2023-07-13T02:51:21;4.60;;;1.80;;
3819;SDS011;1925;51.356;9.530;2023-07-13T02:53:47;4.30;;;1.70;;
3819;SDS011;1925;51.356;9.530;2023-07-13T02:56:13;3.87;;;1.97;;
3819;SDS011;1925;51.356;9.530;2023-07-13T02:58:39;3.20;;;1.80;;
3819;SDS011;1925;51.356;9.530;2023-07-13T03:01:06;2.87;;;1.60;;
3819;SDS011;1925;51.356;9.530;2023-07-13T03:03:32;3.83;;;1.70;;
3819;SDS011;1925;51.356;9.530;2023-07-13T03:05:59;3.30;;;1.80;;
3819;SDS011;1925;51.356;9.530;2023-07-13T03:08:25;2.13;;;1.70;;
3819;SDS011;1925;51.356;9.530;2023-07-13T03:11:01;6.10;;;1.87;;
3819;SDS011;1925;51.356;9.530;2023-07-13T03:13:28;7.70;;;1.73;;
3819;SDS011;1925;51.356;9.530;2023-07-13T03:15:54;5.03;;;2.50;;
3819;SDS011;1925;51.356;9.530;2023-07-13T03:18:20;3.73;;;1.97;;
3819;SDS011;1925;51.356;9.530;2023-07-13T03:20:46;5.43;;;2.13;;
3819;SDS011;1925;51.356;9.530;2023-07-13T03:23:12;3.93;;;2.00;;
3819;SDS011;1925;51.356;9.530;2023-07-13T03:25:38;5.17;;;2.30;;
3819;SDS011;1925;51.356;9.530;2023-07-13T03:28:04;2.50;;;2.30;;
3819;SDS011;1925;51.356;9.530;2023-07-13T03:30:30;2.70;;;2.07;;
3819;SDS011;1925;51.356;9.530;2023-07-13T03:32:56;5.53;;;2.30;;
3819;SDS011;1925;51.356;9.530;2023-07-13T03:35:22;4.43;;;2.07;;
3819;SDS011;1925;51.356;9.530;2023-07-13T03:37:48;4.70;;;1.83;;
3819;SDS011;1925;51.356;9.530;2023-07-13T03:40:14;2.87;;;2.00;;
3819;SDS011;1925;51.356;9.530;2023-07-13T03:42:40;3.50;;;1.70;;
3819;SDS011;1925;51.356;9.530;2023-07-13T03:45:06;3.33;;;2.60;;
3819;SDS011;1925;51.356;9.530;2023-07-13T03:47:32;2.63;;;1.93;;
3819;SDS011;1925;51.356;9.530;2023-07-13T03:49:58;3.23;;;1.87;;
3819;SDS011;1925;51.356;9.530;2023-07-13T03:52:24;2.87;;;2.00;;
3819;SDS011;1925;51.356;9.530;2023-07-13T03:54:50;2.27;;;1.80;;
3819;SDS011;1925;51.356;9.530;2023-07-13T03:57:16;3.60;;;2.50;;
3819;SDS011;1925;51.356;9.530;2023-07-13T03:59:42;5.03;;;2.47;;
3819;SDS011;1925;51.356;9.530;2023-07-13T04:02:08;2.40;;;2.17;;
3819;SDS011;1925;51.356;9.530;2023-07-13T04:04:34;5.17;;;2.20;;
3819;SDS011;1925;51.356;9.530;2023-07-13T04:07:00;4.53;;;2.20;;
3819;SDS011;1925;51.356;9.530;2023-07-13T04:09:26;3.00;;;2.13;;
3819;SDS011;1925;51.356;9.530;2023-07-13T04:11:52;3.77;;;2.07;;
3819;SDS011;1925;51.356;9.530;2023-07-13T04:14:18;7.00;;;2.40;;
3819;SDS011;1925;51.356;9.530;2023-07-13T04:16:44;6.90;;;2.13;;
3819;SDS011;1925;51.356;9.530;2023-07-13T04:19:10;3.47;;;2.40;;
3819;SDS011;1925;51.356;9.530;2023-07-13T04:21:36;3.80;;;2.30;;
3819;SDS011;1925;51.356;9.530;2023-07-13T04:24:03;3.93;;;2.83;;
3819;SDS011;1925;51.356;9.530;2023-07-13T04:26:29;2.80;;;2.37;;
3819;SDS011;1925;51.356;9.530;2023-07-13T04:28:55;7.00;;;2.07;;
3819;SDS011;1925;51.356;9.530;2023-07-13T04:31:21;6.40;;;2.53;;
3819;SDS011;1925;51.356;9.530;2023-07-13T04:33:48;4.73;;;2.43;;
3819;SDS011;1925;51.356;9.530;2023-07-13T04:36:15;2.57;;;2.37;;
3819;SDS011;1925;51.356;9.530;2023-07-13T04:38:42;3.90;;;2.77;;
3819;SDS011;1925;51.356;9.530;2023-07-13T04:41:08;3.87;;;2.10;;
3819;SDS011;1925;51.356;9.530;2023-07-13T04:43:34;6.87;;;2.30;;
3819;SDS011;1925;51.356;9.530;2023-07-13T04:46:04;2.90;;;1.90;;
3819;SDS011;1925;51.356;9.530;2023-07-13T04:48:30;4.77;;;2.33;;
3819;SDS011;1925;51.356;9.530;2023-07-13T04:50:58;2.67;;;2.47;;
3819;SDS011;1925;51.356;9.530;2023-07-13T04:53:24;2.77;;;2.47;;
3819;SDS011;1925;51.356;9.530;2023-07-13T04:55:51;3.30;;;2.50;;
3819;SDS011;1925;51.356;9.530;2023-07-13T04:58:17;3.60;;;2.40;;
3819;SDS011;1925;51.356;9.530;2023-07-13T05:00:42;4.60;;;2.93;;
3819;SDS011;1925;51.356;9.530;2023-07-13T05:03:09;2.70;;;2.07;;
3819;SDS011;1925;51.356;9.530;2023-07-13T05:05:34;3.20;;;2.10;;
3819;SDS011;1925;51.356;9.530;2023-07-13T05:08:00;7.80;;;2.63;;
3819;SDS011;1925;51.356;9.530;2023-07-13T05:10:27;6.73;;;2.13;;
3819;SDS011;1925;51.356;9.530;2023-07-13T05:12:53;3.33;;;2.00;;
3819;SDS011;1925;51.356;9.530;2023-07-13T05:15:22;4.43;;;1.90;;
3819;SDS011;1925;51.356;9.530;2023-07-13T05:17:50;2.30;;;2.13;;
3819;SDS011;1925;51.356;9.530;2023-07-13T05:20:17;9.27;;;1.97;;
3819;SDS011;1925;51.356;9.530;2023-07-13T05:22:43;6.23;;;2.57;;
3819;SDS011;1925;51.356;9.530;2023-07-13T05:25:11;4.03;;;2.43;;
3819;SDS011;1925;51.356;9.530;2023-07-13T05:27:38;3.40;;;1.70;;
3819;SDS011;1925;51.356;9.530;2023-07-13T05:30:04;2.83;;;1.80;;
3819;SDS011;1925;51.356;9.530;2023-07-13T05:32:30;3.03;;;2.40;;
3819;SDS011;1925;51.356;9.530;2023-07-13T05:34:56;3.13;;;1.63;;
3819;SDS011;1925;51.356;9.530;2023-07-13T05:37:22;15.30;;;2.70;;
3819;SDS011;1925;51.356;9.530;2023-07-13T05:39:48;3.97;;;1.73;;
3819;SDS011;1925;51.356;9.530;2023-07-13T05:42:14;7.87;;;2.67;;
3819;SDS011;1925;51.356;9.530;2023-07-13T05:44:40;8.83;;;2.50;;
3819;SDS011;1925;51.356;9.530;2023-07-13T05:47:06;4.90;;;1.50;;
3819;SDS011;1925;51.356;9.530;2023-07-13T05:49:32;2.63;;;1.33;;
3819;SDS011;1925;51.356;9.530;2023-07-13T05:51:58;5.10;;;1.67;;
3819;SDS011;1925;51.356;9.530;2023-07-13T05:54:24;2.90;;;1.70;;
3819;SDS011;1925;51.356;9.530;2023-07-13T05:56:50;5.27;;;1.43;;
3819;SDS011;1925;51.356;9.530;2023-07-13T05:59:17;4.63;;;1.90;;
3819;SDS011;1925;51.356;9.530;2023-07-13T06:01:43;2.67;;;1.77;;
3819;SDS011;1925;51.356;9.530;2023-07-13T06:04:09;2.57;;;1.30;;
3819;SDS011;1925;51.356;9.530;2023-07-13T06:06:34;1.90;;;1.53;;
3819;SDS011;1925;51.356;9.530;2023-07-13T06:09:00;4.40;;;1.90;;
3819;SDS011;1925;51.356;9.530;2023-07-13T06:11:27;5.73;;;2.30;;
3819;SDS011;1925;51.356;9.530;2023-07-13T06:13:54;2.60;;;1.83;;
3819;SDS011;1925;51.356;9.530;2023-07-13T06:16:21;3.20;;;1.80;;
3819;SDS011;1925;51.356;9.530;2023-07-13T06:18:47;6.30;;;2.17;;
3819;SDS011;1925;51.356;9.530;2023-07-13T06:21:15;4.30;;;1.43;;
3819;SDS011;1925;51.356;9.530;2023-07-13T06:23:41;2.97;;;1.63;;
3819;SDS011;1925;51.356;9.530;2023-07-13T06:26:07;3.47;;;2.00;;
3819;SDS011;1925;51.356;9.530;2023-07-13T06:28:34;5.40;;;2.40;;
3819;SDS011;1925;51.356;9.530;2023-07-13T06:31:00;4.50;;;1.90;;
3819;SDS011;1925;51.356;9.530;2023-07-13T06:33:26;9.13;;;3.03;;
3819;SDS011;1925;51.356;9.530;2023-07-13T06:35:52;8.77;;;2.33;;
3819;SDS011;1925;51.356;9.530;2023-07-13T06:38:20;7.13;;;2.60;;
3819;SDS011;1925;51.356;9.530;2023-07-13T06:40:46;3.37;;;1.53;;
3819;SDS011;1925;51.356;9.530;2023-07-13T06:43:11;3.20;;;1.50;;
3819;SDS011;1925;51.356;9.530;2023-07-13T06:45:44;5.20;;;1.97;;
3819;SDS011;1925;51.356;9.530;2023-07-13T06:48:12;2.10;;;1.90;;
3819;SDS011;1925;51.356;9.530;2023-07-13T06:50:38;5.63;;;1.87;;
3819;SDS011;1925;51.356;9.530;2023-07-13T06:53:04;2.77;;;1.77;;
3819;SDS011;1925;51.356;9.530;2023-07-13T06:55:30;2.90;;;2.40;;
3819;SDS011;1925;51.356;9.530;2023-07-13T06:57:56;5.60;;;1.83;;
3819;SDS011;1925;51.356;9.530;2023-07-13T07:00:22;3.00;;;1.80;;
3819;SDS011;1925;51.356;9.530;2023-07-13T07:02:47;1.93;;;1.10;;
3819;SDS011;1925;51.356;9.530;2023-07-13T07:05:13;4.30;;;1.40;;
3819;SDS011;1925;51.356;9.530;2023-07-13T07:07:39;2.37;;;1.20;;
3819;SDS011;1925;51.356;9.530;2023-07-13T07:10:05;1.97;;;1.13;;
3819;SDS011;1925;51.356;9.530;2023-07-13T07:12:31;1.80;;;1.10;;
3819;SDS011;1925;51.356;9.530;2023-07-13T07:14:57;6.90;;;1.33;;
3819;SDS011;1925;51.356;9.530;2023-07-13T07:17:23;3.30;;;1.50;;
3819;SDS011;1925;51.356;9.530;2023-07-13T07:19:50;2.40;;;1.80;;
3819;SDS011;1925;51.356;9.530;2023-07-13T07:22:18;3.00;;;1.13;;
3819;SDS011;1925;51.356;9.530;2023-07-13T07:24:44;3.97;;;1.47;;
3819;SDS011;1925;51.356;9.530;2023-07-13T07:27:10;2.03;;;1.20;;
3819;SDS011;1925;51.356;9.530;2023-07-13T07:29:36;2.70;;;1.00;;
3819;SDS011;1925;51.356;9.530;2023-07-13T07:32:02;3.20;;;1.10;;
3819;SDS011;1925;51.356;9.530;2023-07-13T07:34:28;2.60;;;1.10;;
3819;SDS011;1925;51.356;9.530;2023-07-13T07:36:54;1.73;;;0.80;;
3819;SDS011;1925;51.356;9.530;2023-07-13T07:39:20;2.90;;;1.40;;
3819;SDS011;1925;51.356;9.530;2023-07-13T07:41:46;2.07;;;1.07;;
3819;SDS011;1925;51.356;9.530;2023-07-13T07:44:12;3.17;;;1.20;;
3819;SDS011;1925;51.356;9.530;2023-07-13T07:46:38;7.00;;;1.07;;
3819;SDS011;1925;51.356;9.530;2023-07-13T07:49:06;1.60;;;0.80;;
3819;SDS011;1925;51.356;9.530;2023-07-13T07:51:31;2.47;;;1.30;;
3819;SDS011;1925;51.356;9.530;2023-07-13T07:53:57;1.80;;;0.90;;
3819;SDS011;1925;51.356;9.530;2023-07-13T07:56:24;3.93;;;1.23;;
3819;SDS011;1925;51.356;9.530;2023-07-13T07:58:50;6.40;;;1.10;;
3819;SDS011;1925;51.356;9.530;2023-07-13T08:01:16;2.50;;;1.20;;
3819;SDS011;1925;51.356;9.530;2023-07-13T08:03:42;2.20;;;1.17;;
3819;SDS011;1925;51.356;9.530;2023-07-13T08:06:08;3.60;;;0.87;;
3819;SDS011;1925;51.356;9.530;2023-07-13T08:08:34;2.50;;;1.03;;
3819;SDS011;1925;51.356;9.530;2023-07-13T08:11:04;1.83;;;0.77;;
3819;SDS011;1925;51.356;9.530;2023-07-13T08:13:30;1.57;;;1.33;;
3819;SDS011;1925;51.356;9.530;2023-07-13T08:15:56;2.77;;;1.20;;
3819;SDS011;1925;51.356;9.530;2023-07-13T08:18:22;1.93;;;1.17;;
3819;SDS011;1925;51.356;9.530;2023-07-13T08:20:48;1.53;;;0.80;;
3819;SDS011;1925;51.356;9.530;2023-07-13T08:23:14;2.70;;;1.20;;
3819;SDS011;1925;51.356;9.530;2023-07-13T08:25:41;1.37;;;1.07;;
3819;SDS011;1925;51.356;9.530;2023-07-13T08:28:07;3.40;;;0.90;;
3819;SDS011;1925;51.356;9.530;2023-07-13T08:30:33;3.60;;;1.00;;
3819;SDS011;1925;51.356;9.530;2023-07-13T08:33:01;2.50;;;1.40;;
3819;SDS011;1925;51.356;9.530;2023-07-13T08:35:27;2.00;;;0.90;;
3819;SDS011;1925;51.356;9.530;2023-07-13T08:37:53;1.37;;;0.70;;
3819;SDS011;1925;51.356;9.530;2023-07-13T08:40:19;4.30;;;1.07;;
3819;SDS011;1925;51.356;9.530;2023-07-13T08:42:52;1.67;;;0.80;;
3819;SDS011;1925;51.356;9.530;2023-07-13T08:50:41;0.93;;;0.80;;
3819;SDS011;1925;51.356;9.530;2023-07-13T08:53:11;1.97;;;0.90;;
3819;SDS011;1925;51.356;9.530;2023-07-13T08:55:38;5.33;;;1.10;;
3819;SDS011;1925;51.356;9.530;2023-07-13T08:58:14;2.33;;;0.80;;
3819;SDS011;1925;51.356;9.530;2023-07-13T09:03:40;1.20;;;0.90;;
3819;SDS011;1925;51.356;9.530;2023-07-13T09:06:07;3.57;;;1.63;;
3819;SDS011;1925;51.356;9.530;2023-07-13T09:08:42;2.10;;;0.90;;
3819;SDS011;1925;51.356;9.530;2023-07-13T09:11:14;1.03;;;0.83;;
3819;SDS011;1925;51.356;9.530;2023-07-13T09:13:43;1.70;;;0.90;;
3819;SDS011;1925;51.356;9.530;2023-07-13T09:16:14;1.53;;;1.10;;
3819;SDS011;1925;51.356;9.530;2023-07-13T09:18:41;2.03;;;0.77;;
3819;SDS011;1925;51.356;9.530;2023-07-13T09:21:09;1.90;;;0.73;;
3819;SDS011;1925;51.356;9.530;2023-07-13T09:23:36;1.57;;;1.07;;
3819;SDS011;1925;51.356;9.530;2023-07-13T09:26:11;2.37;;;1.20;;
3819;SDS011;1925;51.356;9.530;2023-07-13T09:28:39;1.00;;;0.70;;
3819;SDS011;1925;51.356;9.530;2023-07-13T09:33:31;1.30;;;0.70;;
3819;SDS011;1925;51.356;9.530;2023-07-13T09:35:59;1.60;;;0.87;;
3819;SDS011;1925;51.356;9.530;2023-07-13T09:38:26;2.83;;;0.90;;
3819;SDS011;1925;51.356;9.530;2023-07-13T09:43:30;2.10;;;1.23;;
3819;SDS011;1925;51.356;9.530;2023-07-13T09:45:56;2.00;;;1.13;;
3819;SDS011;1925;51.356;9.530;2023-07-13T09:48:22;2.87;;;1.03;;
3819;SDS011;1925;51.356;9.530;2023-07-13T09:50:49;3.60;;;1.07;;
3819;SDS011;1925;51.356;9.530;2023-07-13T09:53:20;1.97;;;1.30;;
3819;SDS011;1925;51.356;9.530;2023-07-13T09:55:48;2.20;;;1.07;;
3819;SDS011;1925;51.356;9.530;2023-07-13T09:58:19;1.70;;;0.80;;
3819;SDS011;1925;51.356;9.530;2023-07-13T10:00:57;2.27;;;1.00;;
3819;SDS011;1925;51.356;9.530;2023-07-13T10:03:25;1.93;;;0.80;;
3819;SDS011;1925;51.356;9.530;2023-07-13T10:05:52;1.20;;;1.07;;
3819;SDS011;1925;51.356;9.530;2023-07-13T10:08:24;2.37;;;1.20;;
3819;SDS011;1925;51.356;9.530;2023-07-13T10:13:52;1.63;;;1.20;;
3819;SDS011;1925;51.356;9.530;2023-07-13T10:16:20;2.30;;;1.10;;
3819;SDS011;1925;51.356;9.530;2023-07-13T10:18:51;1.97;;;1.20;;
3819;SDS011;1925;51.356;9.530;2023-07-13T10:21:20;2.20;;;1.60;;
3819;SDS011;1925;51.356;9.530;2023-07-13T10:23:54;3.60;;;1.10;;
3819;SDS011;1925;51.356;9.530;2023-07-13T10:26:25;2.50;;;1.37;;
3819;SDS011;1925;51.356;9.530;2023-07-13T10:28:53;1.83;;;1.23;;
3819;SDS011;1925;51.356;9.530;2023-07-13T10:31:20;2.10;;;1.37;;
3819;SDS011;1925;51.356;9.530;2023-07-13T10:33:46;2.27;;;1.00;;
3819;SDS011;1925;51.356;9.530;2023-07-13T10:36:30;2.60;;;1.30;;
3819;SDS011;1925;51.356;9.530;2023-07-13T10:38:57;1.83;;;1.00;;
3819;SDS011;1925;51.356;9.530;2023-07-13T10:41:24;1.30;;;1.10;;
3819;SDS011;1925;51.356;9.530;2023-07-13T10:43:52;1.10;;;0.83;;
3819;SDS011;1925;51.356;9.530;2023-07-13T10:46:19;1.63;;;1.00;;
3819;SDS011;1925;51.356;9.530;2023-07-13T10:48:46;3.37;;;1.60;;
3819;SDS011;1925;51.356;9.530;2023-07-13T10:51:15;3.43;;;0.93;;
3819;SDS011;1925;51.356;9.530;2023-07-13T10:53:41;1.50;;;0.80;;
3819;SDS011;1925;51.356;9.530;2023-07-13T10:58:40;2.23;;;1.27;;
3819;SDS011;1925;51.356;9.530;2023-07-13T11:03:34;2.50;;;1.03;;
3819;SDS011;1925;51.356;9.530;2023-07-13T11:06:04;4.10;;;0.90;;
3819;SDS011;1925;51.356;9.530;2023-07-13T11:10:56;1.17;;;0.77;;
3819;SDS011;1925;51.356;9.530;2023-07-13T11:18:39;1.43;;;0.73;;
3819;SDS011;1925;51.356;9.530;2023-07-13T11:21:12;1.30;;;0.80;;
3819;SDS011;1925;51.356;9.530;2023-07-13T11:23:41;1.47;;;0.90;;
3819;SDS011;1925;51.356;9.530;2023-07-13T11:28:54;0.93;;;0.83;;
3819;SDS011;1925;51.356;9.530;2023-07-13T11:31:20;1.20;;;1.00;;
3819;SDS011;1925;51.356;9.530;2023-07-13T11:33:51;1.90;;;1.10;;
3819;SDS011;1925;51.356;9.530;2023-07-13T11:36:19;2.43;;;0.97;;
3819;SDS011;1925;51.356;9.530;2023-07-13T11:41:19;1.90;;;0.87;;
3819;SDS011;1925;51.356;9.530;2023-07-13T11:43:48;2.37;;;1.27;;
3819;SDS011;1925;51.356;9.530;2023-07-13T11:46:17;2.00;;;1.00;;
3819;SDS011;1925;51.356;9.530;2023-07-13T11:48:45;3.17;;;1.57;;
3819;SDS011;1925;51.356;9.530;2023-07-13T11:51:15;3.00;;;1.20;;
3819;SDS011;1925;51.356;9.530;2023-07-13T11:53:45;1.57;;;0.90;;
3819;SDS011;1925;51.356;9.530;2023-07-13T11:56:12;1.63;;;1.13;;
3819;SDS011;1925;51.356;9.530;2023-07-13T11:58:38;3.73;;;1.33;;
3819;SDS011;1925;51.356;9.530;2023-07-13T12:01:04;4.47;;;1.00;;
3819;SDS011;1925;51.356;9.530;2023-07-13T12:03:30;1.83;;;1.03;;
3819;SDS011;1925;51.356;9.530;2023-07-13T12:06:02;2.27;;;0.90;;
3819;SDS011;1925;51.356;9.530;2023-07-13T12:08:30;2.30;;;1.17;;
3819;SDS011;1925;51.356;9.530;2023-07-13T12:10:57;1.57;;;0.80;;
3819;SDS011;1925;51.356;9.530;2023-07-13T12:13:23;1.00;;;0.70;;
3819;SDS011;1925;51.356;9.530;2023-07-13T12:15:49;1.77;;;0.87;;
3819;SDS011;1925;51.356;9.530;2023-07-13T12:18:20;1.50;;;1.00;;
3819;SDS011;1925;51.356;9.530;2023-07-13T12:20:47;1.17;;;0.80;;
3819;SDS011;1925;51.356;9.530;2023-07-13T12:25:45;2.77;;;0.80;;
3819;SDS011;1925;51.356;9.530;2023-07-13T12:28:21;2.57;;;1.27;;
3819;SDS011;1925;51.356;9.530;2023-07-13T12:30:48;2.20;;;1.17;;
3819;SDS011;1925;51.356;9.530;2023-07-13T12:33:15;1.90;;;1.30;;
3819;SDS011;1925;51.356;9.530;2023-07-13T12:35:44;1.47;;;1.20;;
3819;SDS011;1925;51.356;9.530;2023-07-13T12:38:11;2.20;;;1.13;;
3819;SDS011;1925;51.356;9.530;2023-07-13T12:40:37;2.73;;;1.67;;
3819;SDS011;1925;51.356;9.530;2023-07-13T12:43:05;1.60;;;1.50;;
3819;SDS011;1925;51.356;9.530;2023-07-13T12:45:36;1.97;;;1.73;;
3819;SDS011;1925;51.356;9.530;2023-07-13T12:48:06;3.57;;;1.20;;
3819;SDS011;1925;51.356;9.530;2023-07-13T12:50:37;5.37;;;2.03;;
3819;SDS011;1925;51.356;9.530;2023-07-13T12:53:14;2.50;;;1.20;;
3819;SDS011;1925;51.356;9.530;2023-07-13T12:55:45;3.47;;;1.23;;
3819;SDS011;1925;51.356;9.530;2023-07-13T12:58:24;1.67;;;1.00;;
3819;SDS011;1925;51.356;9.530;2023-07-13T13:00:51;1.40;;;1.00;;
3819;SDS011;1925;51.356;9.530;2023-07-13T13:05:45;1.63;;;1.00;;
3819;SDS011;1925;51.356;9.530;2023-07-13T13:08:11;3.83;;;1.33;;
3819;SDS011;1925;51.356;9.530;2023-07-13T13:10:37;2.20;;;1.07;;
3819;SDS011;1925;51.356;9.530;2023-07-13T13:13:04;7.10;;;1.23;;
3819;SDS011;1925;51.356;9.530;2023-07-13T13:15:30;3.10;;;0.97;;
3819;SDS011;1925;51.356;9.530;2023-07-13T13:17:56;2.97;;;1.10;;
3819;SDS011;1925;51.356;9.530;2023-07-13T13:20:24;1.97;;;0.93;;
3819;SDS011;1925;51.356;9.530;2023-07-13T13:22:50;1.30;;;1.10;;
3819;SDS011;1925;51.356;9.530;2023-07-13T13:25:17;2.77;;;1.33;;
3819;SDS011;1925;51.356;9.530;2023-07-13T13:27:43;2.43;;;1.33;;
3819;SDS011;1925;51.356;9.530;2023-07-13T13:30:13;2.13;;;1.13;;
3819;SDS011;1925;51.356;9.530;2023-07-13T13:32:40;3.83;;;1.50;;
3819;SDS011;1925;51.356;9.530;2023-07-13T13:35:19;3.03;;;1.37;;
3819;SDS011;1925;51.356;9.530;2023-07-13T13:37:45;2.90;;;1.00;;
3819;SDS011;1925;51.356;9.530;2023-07-13T13:40:16;2.23;;;1.00;;
3819;SDS011;1925;51.356;9.530;2023-07-13T13:42:42;1.17;;;0.90;;
3819;SDS011;1925;51.356;9.530;2023-07-13T13:45:09;7.03;;;1.83;;
3819;SDS011;1925;51.356;9.530;2023-07-13T13:47:35;1.40;;;1.20;;
3819;SDS011;1925;51.356;9.530;2023-07-13T13:50:04;2.87;;;1.30;;
3819;SDS011;1925;51.356;9.530;2023-07-13T13:52:35;3.40;;;1.27;;
3819;SDS011;1925;51.356;9.530;2023-07-13T13:55:01;5.70;;;1.80;;
3819;SDS011;1925;51.356;9.530;2023-07-13T13:57:27;6.00;;;1.73;;
3819;SDS011;1925;51.356;9.530;2023-07-13T13:59:54;1.50;;;0.83;;
3819;SDS011;1925;51.356;9.530;2023-07-13T14:02:29;2.50;;;1.20;;
3819;SDS011;1925;51.356;9.530;2023-07-13T14:04:57;1.40;;;1.20;;
3819;SDS011;1925;51.356;9.530;2023-07-13T14:07:24;2.37;;;1.03;;
3819;SDS011;1925;51.356;9.530;2023-07-13T14:09:51;2.10;;;1.20;;
3819;SDS011;1925;51.356;9.530;2023-07-13T14:12:17;2.87;;;1.13;;
3819;SDS011;1925;51.356;9.530;2023-07-13T14:14:43;3.60;;;1.20;;
3819;SDS011;1925;51.356;9.530;2023-07-13T14:17:13;1.07;;;0.97;;
3819;SDS011;1925;51.356;9.530;2023-07-13T14:19:43;2.10;;;1.27;;
3819;SDS011;1925;51.356;9.530;2023-07-13T14:22:10;2.90;;;1.20;;
3819;SDS011;1925;51.356;9.530;2023-07-13T14:24:36;3.50;;;1.13;;
3819;SDS011;1925;51.356;9.530;2023-07-13T14:27:02;4.40;;;0.90;;
3819;SDS011;1925;51.356;9.530;2023-07-13T14:29:28;1.77;;;1.07;;
3819;SDS011;1925;51.356;9.530;2023-07-13T14:31:57;2.23;;;1.10;;
3819;SDS011;1925;51.356;9.530;2023-07-13T14:34:23;1.73;;;0.90;;
3819;SDS011;1925;51.356;9.530;2023-07-13T14:36:49;1.70;;;1.50;;
3819;SDS011;1925;51.356;9.530;2023-07-13T14:39:16;1.10;;;0.87;;
3819;SDS011;1925;51.356;9.530;2023-07-13T14:41:43;2.00;;;0.90;;
3819;SDS011;1925;51.356;9.530;2023-07-13T14:44:13;1.33;;;1.00;;
3819;SDS011;1925;51.356;9.530;2023-07-13T14:46:39;2.23;;;1.33;;
3819;SDS011;1925;51.356;9.530;2023-07-13T14:49:11;3.70;;;1.37;;
3819;SDS011;1925;51.356;9.530;2023-07-13T14:51:39;1.97;;;1.33;;
3819;SDS011;1925;51.356;9.530;2023-07-13T14:54:07;2.23;;;1.17;;
3819;SDS011;1925;51.356;9.530;2023-07-13T14:56:33;2.83;;;1.20;;
3819;SDS011;1925;51.356;9.530;2023-07-13T14:58:59;3.93;;;1.13;;
3819;SDS011;1925;51.356;9.530;2023-07-13T15:01:25;1.93;;;0.93;;
3819;SDS011;1925;51.356;9.530;2023-07-13T15:03:52;1.63;;;0.90;;
3819;SDS011;1925;51.356;9.530;2023-07-13T15:06:18;3.20;;;1.20;;
3819;SDS011;1925;51.356;9.530;2023-07-13T15:08:45;1.40;;;1.20;;
3819;SDS011;1925;51.356;9.530;2023-07-13T15:11:11;2.70;;;1.30;;
3819;SDS011;1925;51.356;9.530;2023-07-13T15:13:38;1.20;;;1.03;;
3819;SDS011;1925;51.356;9.530;2023-07-13T15:16:04;3.63;;;1.97;;
3819;SDS011;1925;51.356;9.530;2023-07-13T15:18:32;4.27;;;1.80;;
3819;SDS011;1925;51.356;9.530;2023-07-13T15:21:00;2.50;;;1.17;;
3819;SDS011;1925;51.356;9.530;2023-07-13T15:23:28;6.60;;;1.20;;
3819;SDS011;1925;51.356;9.530;2023-07-13T15:25:54;2.27;;;0.93;;
3819;SDS011;1925;51.356;9.530;2023-07-13T15:28:20;2.40;;;1.33;;
3819;SDS011;1925;51.356;9.530;2023-07-13T15:30:47;3.07;;;1.07;;
3819;SDS011;1925;51.356;9.530;2023-07-13T15:33:15;2.87;;;1.47;;
3819;SDS011;1925;51.356;9.530;2023-07-13T15:35:44;6.13;;;1.50;;
3819;SDS011;1925;51.356;9.530;2023-07-13T15:38:15;3.37;;;1.10;;
3819;SDS011;1925;51.356;9.530;2023-07-13T15:40:41;9.03;;;1.43;;
3819;SDS011;1925;51.356;9.530;2023-07-13T15:43:11;2.03;;;1.10;;
3819;SDS011;1925;51.356;9.530;2023-07-13T15:45:37;1.67;;;1.23;;
3819;SDS011;1925;51.356;9.530;2023-07-13T15:48:14;3.00;;;1.20;;
3819;SDS011;1925;51.356;9.530;2023-07-13T15:50:43;2.27;;;1.07;;
3819;SDS011;1925;51.356;9.530;2023-07-13T15:53:09;4.70;;;1.00;;